createdAt,value
2023-03-17T00:02:24.994Z,0.40
2023-03-17T00:04:53.217Z,0.50
2023-03-17T00:07:20.662Z,0.40
2023-03-17T00:09:49.433Z,0.40
2023-03-17T00:12:18.238Z,0.30
2023-03-17T00:14:46.838Z,0.50
2023-03-17T00:17:14.618Z,0.40
2023-03-17T00:19:43.391Z,0.57
2023-03-17T00:22:16.624Z,0.50
2023-03-17T00:24:44.624Z,0.40
2023-03-17T00:27:14.311Z,0.50
2023-03-17T00:29:41.763Z,0.40
2023-03-17T00:32:15.988Z,0.43
2023-03-17T00:34:43.510Z,0.40
2023-03-17T00:37:12.721Z,0.40
2023-03-17T00:39:40.477Z,0.60
2023-03-17T00:42:08.075Z,0.43
2023-03-17T00:44:36.864Z,0.60
2023-03-17T00:47:04.578Z,0.50
2023-03-17T00:49:32.606Z,0.40
2023-03-17T00:52:00.122Z,0.50
2023-03-17T00:54:27.871Z,0.50
2023-03-17T00:56:55.295Z,0.50
2023-03-17T00:59:25.934Z,0.60
2023-03-17T01:01:55.417Z,0.40
2023-03-17T01:04:23.897Z,0.40
2023-03-17T01:06:52.035Z,0.50
2023-03-17T01:09:20.290Z,0.45
2023-03-17T01:11:48.565Z,0.47
2023-03-17T01:14:16.670Z,0.47
2023-03-17T01:16:44.601Z,0.55
2023-03-17T01:19:13.958Z,0.52
2023-03-17T01:21:42.447Z,0.40
2023-03-17T01:24:09.950Z,0.50
2023-03-17T01:26:37.671Z,0.40
2023-03-17T01:29:06.254Z,0.50
2023-03-17T01:31:33.809Z,0.50
2023-03-17T01:34:01.559Z,0.50
2023-03-17T01:36:30.741Z,0.40
2023-03-17T01:38:58.583Z,0.38
2023-03-17T01:41:26.998Z,0.50
2023-03-17T01:43:54.537Z,0.60
2023-03-17T01:46:25.131Z,0.40
2023-03-17T01:49:19.461Z,0.40
2023-03-17T01:51:51.620Z,0.50
2023-03-17T01:54:23.166Z,0.43
2023-03-17T01:56:51.648Z,0.40
2023-03-17T01:59:20.201Z,0.50
2023-03-17T02:01:49.331Z,0.50
2023-03-17T02:04:17.512Z,0.45
2023-03-17T02:06:57.364Z,0.50
2023-03-17T02:09:27.699Z,0.53
2023-03-17T02:11:55.528Z,0.40
2023-03-17T02:14:23.620Z,0.40
2023-03-17T02:16:51.094Z,0.60
2023-03-17T02:19:18.618Z,0.40
2023-03-17T02:21:48.059Z,0.40
2023-03-17T02:24:21.750Z,0.32
2023-03-17T02:26:50.527Z,0.50
2023-03-17T02:29:19.783Z,0.40
2023-03-17T02:31:47.318Z,0.40
2023-03-17T02:34:16.825Z,0.40
2023-03-17T02:36:44.412Z,0.40
2023-03-17T02:39:13.699Z,0.47
2023-03-17T02:41:41.668Z,0.60
2023-03-17T02:44:09.715Z,0.60
2023-03-17T02:46:37.165Z,0.60
2023-03-17T02:49:05.409Z,0.40
2023-03-17T02:51:32.864Z,0.70
2023-03-17T02:54:00.282Z,0.50
2023-03-17T02:56:29.207Z,0.65
2023-03-17T02:58:56.874Z,0.50
2023-03-17T03:01:26.764Z,0.52
2023-03-17T03:03:54.250Z,0.60
2023-03-17T03:06:23.489Z,0.43
2023-03-17T03:08:50.964Z,0.55
2023-03-17T03:11:18.409Z,0.50
2023-03-17T03:13:47.330Z,0.40
2023-03-17T03:16:14.815Z,0.50
2023-03-17T03:18:42.428Z,0.57
2023-03-17T03:21:10.536Z,0.50
2023-03-17T03:23:38.060Z,0.70
2023-03-17T03:26:05.654Z,0.50
2023-03-17T03:28:33.078Z,0.50
2023-03-17T03:31:02.569Z,0.40
2023-03-17T03:33:30.113Z,0.47
2023-03-17T03:35:58.092Z,0.55
2023-03-17T03:38:26.012Z,0.45
2023-03-17T03:40:53.472Z,0.40
2023-03-17T03:43:23.758Z,0.40
2023-03-17T03:45:51.641Z,0.50
2023-03-17T03:48:20.381Z,0.40
2023-03-17T03:50:47.935Z,0.50
2023-03-17T03:53:15.532Z,0.50
2023-03-17T03:55:42.954Z,0.40
2023-03-17T03:58:10.565Z,0.40
2023-03-17T04:00:37.998Z,0.40
2023-03-17T04:03:05.711Z,0.60
2023-03-17T04:05:34.676Z,0.45
2023-03-17T04:08:02.084Z,0.70
2023-03-17T04:10:29.931Z,0.50
2023-03-17T04:12:57.427Z,0.50
2023-03-17T04:15:25.101Z,0.65
2023-03-17T04:17:54.908Z,0.50
2023-03-17T04:20:22.741Z,0.55
2023-03-17T04:22:51.751Z,0.50
2023-03-17T04:25:19.253Z,0.60
2023-03-17T04:27:46.733Z,0.50
2023-03-17T04:30:14.659Z,0.40
2023-03-17T04:32:42.608Z,0.50
2023-03-17T04:35:13.491Z,0.30
2023-03-17T04:37:41.064Z,0.60
2023-03-17T04:40:11.285Z,0.45
2023-03-17T04:42:38.849Z,0.50
2023-03-17T04:45:06.995Z,0.40
2023-03-17T04:47:34.517Z,0.50
2023-03-17T04:50:02.403Z,0.60
2023-03-17T04:52:29.883Z,0.50
2023-03-17T04:54:57.347Z,0.50
2023-03-17T04:57:26.166Z,0.40
2023-03-17T04:59:53.612Z,0.40
2023-03-17T05:02:21.129Z,0.40
2023-03-17T05:04:48.714Z,0.40
2023-03-17T05:07:16.199Z,0.50
2023-03-17T05:09:43.980Z,0.40
2023-03-17T05:12:11.627Z,0.40
2023-03-17T05:14:40.479Z,0.50
2023-03-17T05:17:08.009Z,0.40
2023-03-17T05:19:35.424Z,0.40
2023-03-17T05:22:02.876Z,0.52
2023-03-17T05:24:30.557Z,0.50
2023-03-17T05:26:58.016Z,0.40
2023-03-17T05:29:25.510Z,0.40
2023-03-17T05:31:54.291Z,0.55
2023-03-17T05:34:21.801Z,0.40
2023-03-17T05:36:50.340Z,0.40
2023-03-17T05:39:17.859Z,0.38
2023-03-17T05:41:45.620Z,0.40
2023-03-17T05:44:13.413Z,0.40
2023-03-17T05:46:41.055Z,0.30
2023-03-17T05:49:10.026Z,0.40
2023-03-17T05:51:37.487Z,0.30
2023-03-17T05:54:05.059Z,0.30
2023-03-17T05:56:33.695Z,0.40
2023-03-17T05:59:01.965Z,0.43
2023-03-17T06:01:29.985Z,0.40
2023-03-17T06:03:57.524Z,0.35
2023-03-17T06:06:26.943Z,0.35
2023-03-17T06:08:54.322Z,0.35
2023-03-17T06:11:21.799Z,0.40
2023-03-17T06:13:49.492Z,0.30
2023-03-17T06:16:17.076Z,0.30
2023-03-17T06:18:45.669Z,0.40
2023-03-17T06:21:13.205Z,0.30
2023-03-17T06:23:43.749Z,0.32
2023-03-17T06:26:11.617Z,0.40
2023-03-17T06:28:39.030Z,0.30
2023-03-17T06:31:07.440Z,0.40
2023-03-17T06:33:35.274Z,0.30
2023-03-17T06:36:03.198Z,0.40
2023-03-17T06:38:30.686Z,0.30
2023-03-17T06:40:59.409Z,0.30
2023-03-17T06:43:27.203Z,0.50
2023-03-17T06:45:54.642Z,0.40
2023-03-17T06:48:23.385Z,0.40
2023-03-17T06:50:51.088Z,0.43
2023-03-17T06:53:18.530Z,0.30
2023-03-17T06:55:46.004Z,0.40
2023-03-17T06:58:15.877Z,0.38
2023-03-17T07:00:45.345Z,0.30
2023-03-17T07:03:12.885Z,0.40
2023-03-17T07:05:40.347Z,0.30
2023-03-17T07:08:08.028Z,0.35
2023-03-17T07:10:36.652Z,0.30
2023-03-17T07:13:05.942Z,0.38
2023-03-17T07:15:35.840Z,0.30
2023-03-17T07:18:03.466Z,0.30
2023-03-17T07:20:30.981Z,0.30
2023-03-17T07:22:58.861Z,0.30
2023-03-17T07:25:26.307Z,0.20
2023-03-17T07:27:54.016Z,0.20
2023-03-17T07:30:21.452Z,0.20
2023-03-17T07:32:50.461Z,0.13
2023-03-17T07:35:19.159Z,0.20
2023-03-17T07:37:47.298Z,0.20
2023-03-17T07:40:14.928Z,0.20
2023-03-17T07:42:42.436Z,0.20
2023-03-17T07:45:10.296Z,0.20
2023-03-17T07:47:37.773Z,0.20
2023-03-17T07:50:07.261Z,0.20
2023-03-17T07:52:35.244Z,0.13
2023-03-17T07:55:02.710Z,0.10
2023-03-17T07:57:30.226Z,0.10
2023-03-17T07:59:57.741Z,0.10
2023-03-17T08:02:25.297Z,0.20
2023-03-17T08:04:53.965Z,0.10
2023-03-17T08:07:22.756Z,0.10
2023-03-17T08:09:50.303Z,0.10
2023-03-17T08:12:18.112Z,0.10
2023-03-17T08:14:45.579Z,0.10
2023-03-17T08:17:13.580Z,0.10
2023-03-17T08:19:41.031Z,0.10
2023-03-17T08:22:08.747Z,0.10
2023-03-17T08:24:39.530Z,0.20
2023-03-17T08:27:07.739Z,0.10
2023-03-17T08:29:35.929Z,0.10
2023-03-17T08:32:03.731Z,0.10
2023-03-17T08:34:31.329Z,0.10
2023-03-17T08:36:58.819Z,0.10
2023-03-17T08:39:26.518Z,0.10
2023-03-17T08:41:55.627Z,0.10
2023-03-17T08:44:23.377Z,0.10
2023-03-17T08:46:52.158Z,0.10
2023-03-17T08:49:19.974Z,0.10
2023-03-17T08:51:47.509Z,0.10
2023-03-17T08:54:15.186Z,0.10
2023-03-17T08:56:42.935Z,0.10
2023-03-17T08:59:12.390Z,0.10
2023-03-17T09:01:40.205Z,0.10
2023-03-17T09:04:07.818Z,0.10
2023-03-17T09:06:35.819Z,0.10
2023-03-17T09:09:03.566Z,0.10
2023-03-17T09:11:32.637Z,0.10
2023-03-17T09:14:00.381Z,0.10
2023-03-17T09:16:33.811Z,0.10
2023-03-17T09:19:01.477Z,0.10
2023-03-17T09:21:28.947Z,0.10
2023-03-17T09:23:56.677Z,0.10
2023-03-17T09:26:25.183Z,0.10
2023-03-17T09:28:52.644Z,0.13
2023-03-17T09:31:20.469Z,0.20
2023-03-17T09:33:49.264Z,0.20
2023-03-17T09:36:16.706Z,0.20
2023-03-17T09:38:44.118Z,0.20
2023-03-17T09:41:32.558Z,0.17
2023-03-17T09:44:04.265Z,0.20
2023-03-17T09:46:34.883Z,0.25
2023-03-17T09:49:08.572Z,0.20
2023-03-17T09:51:36.614Z,0.20
2023-03-17T09:54:05.548Z,0.20
2023-03-17T09:56:33.881Z,0.20
2023-03-17T09:59:03.943Z,0.25
2023-03-17T10:01:32.159Z,0.20
2023-03-17T10:03:59.625Z,0.20
2023-03-17T10:06:33.447Z,0.30
2023-03-17T10:09:04.270Z,0.20
2023-03-17T10:11:36.066Z,0.20
2023-03-17T10:14:04.338Z,0.20
2023-03-17T10:16:35.768Z,0.20
2023-03-17T10:19:05.586Z,0.20
2023-03-17T10:21:35.373Z,0.20
2023-03-17T10:24:04.250Z,0.20
2023-03-17T10:26:34.033Z,0.20
2023-03-17T10:29:04.098Z,0.20
2023-03-17T10:31:33.156Z,0.20
2023-03-17T10:34:12.174Z,0.30
2023-03-17T10:36:42.383Z,0.20
2023-03-17T10:39:12.628Z,0.20
2023-03-17T10:41:41.250Z,0.28
2023-03-17T10:44:10.457Z,0.20
2023-03-17T10:46:38.902Z,0.22
2023-03-17T10:49:08.768Z,0.20
2023-03-17T10:51:37.261Z,0.20
2023-03-17T10:54:10.585Z,0.20
2023-03-17T10:56:39.852Z,0.20
2023-03-17T10:59:08.471Z,0.20
2023-03-17T11:01:38.242Z,0.20
2023-03-17T11:04:20.068Z,0.20
2023-03-17T11:06:51.431Z,0.20
2023-03-17T11:09:21.474Z,0.10
2023-03-17T11:11:49.828Z,0.20
2023-03-17T11:14:18.531Z,0.10
2023-03-17T11:16:53.061Z,0.20
2023-03-17T11:19:22.624Z,0.20
2023-03-17T11:21:55.946Z,0.20
2023-03-17T11:24:27.077Z,0.10
2023-03-17T11:26:57.432Z,0.20
2023-03-17T11:29:30.873Z,0.20
2023-03-17T11:32:06.450Z,0.20
2023-03-17T11:34:41.651Z,0.20
2023-03-17T11:37:18.039Z,0.20
2023-03-17T11:39:51.547Z,0.20
2023-03-17T11:42:22.276Z,0.10
2023-03-17T11:45:09.104Z,0.20
2023-03-17T11:47:42.863Z,0.20
2023-03-17T11:50:17.787Z,0.20
2023-03-17T11:52:53.163Z,0.20
2023-03-17T11:55:23.408Z,0.20
2023-03-17T11:57:54.293Z,0.20
2023-03-17T12:00:24.046Z,0.20
2023-03-17T12:02:56.237Z,0.20
2023-03-17T12:05:25.071Z,0.20
2023-03-17T12:07:54.927Z,0.10
2023-03-17T12:10:25.526Z,0.20
2023-03-17T12:12:56.307Z,0.10
2023-03-17T12:15:27.803Z,0.20
2023-03-17T12:17:57.112Z,0.20
2023-03-17T12:20:28.050Z,0.20
2023-03-17T12:22:57.433Z,0.13
2023-03-17T12:25:28.554Z,0.20
2023-03-17T12:27:59.938Z,0.15
2023-03-17T12:30:30.321Z,0.20
2023-03-17T12:33:01.681Z,0.20
2023-03-17T12:35:31.297Z,0.25
2023-03-17T12:37:59.906Z,0.10
2023-03-17T12:40:32.180Z,0.20
2023-03-17T12:43:07.312Z,0.13
2023-03-17T12:45:43.034Z,0.20
2023-03-17T12:48:21.316Z,0.20
2023-03-17T12:51:06.614Z,0.20
2023-03-17T12:53:35.428Z,0.20
2023-03-17T12:56:07.569Z,0.30
2023-03-17T12:58:37.900Z,0.20
2023-03-17T13:01:08.763Z,0.20
2023-03-17T13:03:38.547Z,0.10
2023-03-17T13:06:07.344Z,0.20
2023-03-17T13:08:35.798Z,0.10
2023-03-17T13:11:18.485Z,0.13
2023-03-17T13:13:47.969Z,0.15
2023-03-17T13:16:27.544Z,0.10
2023-03-17T13:19:15.532Z,0.20
2023-03-17T13:21:45.266Z,0.17
2023-03-17T13:24:24.196Z,0.10
2023-03-17T13:26:55.458Z,0.10
2023-03-17T13:29:40.920Z,0.20
2023-03-17T13:32:29.196Z,0.10
2023-03-17T13:35:15.783Z,0.20
2023-03-17T13:37:50.630Z,0.20
2023-03-17T13:40:21.212Z,0.10
2023-03-17T13:42:54.576Z,0.20
2023-03-17T13:45:29.026Z,0.10
2023-03-17T13:48:16.707Z,0.20
2023-03-17T13:50:44.166Z,0.10
2023-03-17T13:53:13.451Z,0.20
2023-03-17T13:55:41.305Z,0.13
2023-03-17T13:58:23.571Z,0.13
2023-03-17T14:00:56.582Z,0.20
2023-03-17T14:03:28.962Z,0.20
2023-03-17T14:05:56.466Z,0.20
2023-03-17T14:08:28.312Z,0.20
2023-03-17T14:10:56.586Z,0.20
2023-03-17T14:13:27.129Z,0.10
2023-03-17T14:15:57.275Z,0.20
2023-03-17T14:18:31.047Z,0.20
2023-03-17T14:20:59.769Z,0.20
2023-03-17T14:23:27.687Z,0.10
2023-03-17T14:25:56.489Z,0.20
2023-03-17T14:28:26.634Z,0.10
2023-03-17T14:30:55.360Z,0.20
2023-03-17T14:33:24.218Z,0.20
2023-03-17T14:35:52.410Z,0.20
2023-03-17T14:38:20.940Z,0.10
2023-03-17T14:40:48.791Z,0.13
2023-03-17T14:43:16.519Z,0.20
2023-03-17T14:45:49.734Z,0.10
2023-03-17T14:48:18.399Z,0.20
2023-03-17T14:50:54.156Z,0.20
2023-03-17T14:53:23.896Z,0.20
2023-03-17T14:55:52.222Z,0.20
2023-03-17T14:58:21.989Z,0.10
2023-03-17T15:00:55.946Z,0.20
2023-03-17T15:03:25.229Z,0.20
2023-03-17T15:06:03.564Z,0.13
2023-03-17T15:08:39.633Z,0.20
2023-03-17T15:11:07.644Z,0.20
2023-03-17T15:13:36.276Z,0.20
2023-03-17T15:16:08.079Z,0.20
2023-03-17T15:18:36.018Z,0.20
2023-03-17T15:21:03.601Z,0.20
2023-03-17T15:23:31.649Z,0.20
2023-03-17T15:25:59.131Z,0.20
2023-03-17T15:28:28.867Z,0.17
2023-03-17T15:30:59.032Z,0.20
2023-03-17T15:33:33.772Z,0.20
2023-03-17T15:36:01.575Z,0.10
2023-03-17T15:38:29.200Z,0.10
2023-03-17T15:40:56.690Z,0.20
2023-03-17T15:43:24.236Z,0.20
2023-03-17T15:45:54.337Z,0.30
2023-03-17T15:48:23.481Z,0.20
2023-03-17T15:50:52.753Z,0.17
2023-03-17T15:53:20.679Z,0.20
2023-03-17T15:55:48.437Z,0.20
2023-03-17T15:58:16.212Z,0.20
2023-03-17T16:00:43.805Z,0.20
2023-03-17T16:03:16.449Z,0.20
2023-03-17T16:05:44.195Z,0.20
2023-03-17T16:08:14.614Z,0.10
2023-03-17T16:10:42.474Z,0.17
2023-03-17T16:13:09.959Z,0.20
2023-03-17T16:15:38.639Z,0.20
2023-03-17T16:18:08.135Z,0.20
2023-03-17T16:20:38.359Z,0.20
2023-03-17T16:23:08.442Z,0.20
2023-03-17T16:25:38.469Z,0.20
2023-03-17T16:28:14.156Z,0.20
2023-03-17T16:30:41.730Z,0.20
2023-03-17T16:33:14.753Z,0.20
2023-03-17T16:35:42.224Z,0.20
2023-03-17T16:38:10.686Z,0.20
2023-03-17T16:40:39.671Z,0.20
2023-03-17T16:43:19.135Z,0.20
2023-03-17T16:45:52.419Z,0.20
2023-03-17T16:48:19.857Z,0.20
2023-03-17T16:50:47.547Z,0.20
2023-03-17T16:53:15.430Z,0.20
2023-03-17T16:55:44.891Z,0.20
2023-03-17T16:58:15.645Z,0.30
2023-03-17T17:00:43.572Z,0.20
2023-03-17T17:03:11.156Z,0.28
2023-03-17T17:05:38.755Z,0.20
2023-03-17T17:08:06.255Z,0.32
2023-03-17T17:10:34.671Z,0.30
2023-03-17T17:13:05.390Z,0.30
2023-03-17T17:15:36.112Z,0.30
2023-03-17T17:18:05.034Z,0.30
2023-03-17T17:20:33.888Z,0.20
2023-03-17T17:23:02.582Z,0.30
2023-03-17T17:25:30.666Z,0.38
2023-03-17T17:27:58.550Z,0.30
2023-03-17T17:30:28.700Z,0.30
2023-03-17T17:32:57.050Z,0.30
2023-03-17T17:35:25.266Z,0.30
2023-03-17T17:37:52.949Z,0.30
2023-03-17T17:40:22.223Z,0.28
2023-03-17T17:42:49.646Z,0.30
2023-03-17T17:45:17.252Z,0.20
2023-03-17T17:47:46.037Z,0.30
2023-03-17T17:50:17.401Z,0.40
2023-03-17T17:52:46.626Z,0.30
2023-03-17T17:55:15.184Z,0.30
2023-03-17T17:57:42.758Z,0.30
2023-03-17T18:00:13.735Z,0.30
2023-03-17T18:02:41.214Z,0.40
2023-03-17T18:05:10.914Z,0.30
2023-03-17T18:07:38.368Z,0.40
2023-03-17T18:10:06.300Z,0.40
2023-03-17T18:12:33.745Z,0.30
2023-03-17T18:15:01.570Z,0.40
2023-03-17T18:17:31.934Z,0.40
2023-03-17T18:19:59.903Z,0.30
2023-03-17T18:22:29.646Z,0.30
2023-03-17T18:24:57.422Z,0.32
2023-03-17T18:27:24.878Z,0.30
2023-03-17T18:29:54.067Z,0.30
2023-03-17T18:32:21.651Z,0.30
2023-03-17T18:34:49.241Z,0.40
2023-03-17T18:37:18.082Z,0.30
2023-03-17T18:39:55.512Z,0.40
2023-03-17T18:42:33.316Z,0.40
2023-03-17T18:45:01.541Z,0.30
2023-03-17T18:47:29.086Z,0.30
2023-03-17T18:49:58.016Z,0.30
2023-03-17T18:52:31.056Z,0.32
2023-03-17T18:55:00.124Z,0.30
2023-03-17T18:57:28.212Z,0.40
2023-03-17T18:59:55.875Z,0.30
2023-03-17T19:02:23.716Z,0.38
2023-03-17T19:04:51.267Z,0.40
2023-03-17T19:07:18.881Z,0.30
2023-03-17T19:09:46.296Z,0.30
2023-03-17T19:12:15.132Z,0.38
2023-03-17T19:14:42.596Z,0.30
2023-03-17T19:17:10.251Z,0.35
2023-03-17T19:19:37.795Z,0.30
2023-03-17T19:22:06.227Z,0.30
2023-03-17T19:24:36.021Z,0.30
2023-03-17T19:27:03.765Z,0.32
2023-03-17T19:29:32.710Z,0.30
2023-03-17T19:32:00.328Z,0.40
2023-03-17T19:34:28.100Z,0.50
2023-03-17T19:36:55.608Z,0.47
2023-03-17T19:39:23.088Z,0.38
2023-03-17T19:41:54.862Z,0.40
2023-03-17T19:44:22.507Z,0.50
2023-03-17T19:46:51.497Z,0.38
2023-03-17T19:49:19.781Z,0.43
2023-03-17T19:51:48.912Z,0.35
2023-03-17T19:54:16.663Z,0.40
2023-03-17T19:56:45.096Z,0.40
2023-03-17T19:59:14.658Z,0.40
2023-03-17T20:01:42.595Z,0.30
2023-03-17T20:04:13.957Z,0.40
2023-03-17T20:06:41.505Z,0.32
2023-03-17T20:09:09.215Z,0.30
2023-03-17T20:11:36.787Z,0.30
2023-03-17T20:14:04.358Z,0.40
2023-03-17T20:16:33.582Z,0.40
2023-03-17T20:19:01.438Z,0.50
2023-03-17T20:21:31.106Z,0.40
2023-03-17T20:23:58.680Z,0.40
2023-03-17T20:26:26.641Z,0.30
2023-03-17T20:28:54.222Z,0.40
2023-03-17T20:31:22.469Z,0.40
2023-03-17T20:33:49.937Z,0.38
2023-03-17T20:36:17.386Z,0.30
2023-03-17T20:38:46.145Z,0.30
2023-03-17T20:41:14.390Z,0.30
2023-03-17T20:43:42.447Z,0.30
2023-03-17T20:46:14.368Z,0.30
2023-03-17T20:48:42.371Z,0.40
2023-03-17T20:51:15.583Z,0.30
2023-03-17T20:53:44.469Z,0.32
2023-03-17T20:56:16.264Z,0.30
2023-03-17T20:58:43.793Z,0.30
2023-03-17T21:01:12.704Z,0.30
2023-03-17T21:03:40.327Z,0.30
2023-03-17T21:06:08.254Z,0.40
2023-03-17T21:08:36.545Z,0.38
2023-03-17T21:11:04.551Z,0.30
2023-03-17T21:13:33.734Z,0.40
2023-03-17T21:16:02.061Z,0.40
2023-03-17T21:18:30.409Z,0.30
2023-03-17T21:20:58.188Z,0.30
2023-03-17T21:23:25.632Z,0.30
2023-03-17T21:25:56.767Z,0.40
2023-03-17T21:28:24.257Z,0.30
2023-03-17T21:30:53.139Z,0.35
2023-03-17T21:33:21.361Z,0.32
2023-03-17T21:35:48.904Z,0.40
2023-03-17T21:38:16.707Z,0.30
2023-03-17T21:40:44.348Z,0.40
2023-03-17T21:43:11.805Z,0.30
2023-03-17T21:45:40.405Z,0.40
2023-03-17T21:48:09.230Z,0.30
2023-03-17T21:50:37.059Z,0.40
2023-03-17T21:53:04.655Z,0.38
2023-03-17T21:55:32.147Z,0.40
2023-03-17T21:57:59.578Z,0.30
2023-03-17T22:00:28.987Z,0.40
2023-03-17T22:03:04.170Z,0.30
2023-03-17T22:05:33.027Z,0.38
2023-03-17T22:08:00.449Z,0.40
2023-03-17T22:10:27.951Z,0.40
2023-03-17T22:12:55.374Z,0.30
2023-03-17T22:15:22.911Z,0.30
2023-03-17T22:17:50.326Z,0.30
2023-03-17T22:20:18.700Z,0.30
2023-03-17T22:22:47.537Z,0.38
2023-03-17T22:25:15.073Z,0.40
2023-03-17T22:27:42.513Z,0.30
2023-03-17T22:30:10.873Z,0.40
2023-03-17T22:32:38.400Z,0.30
2023-03-17T22:35:06.433Z,0.40
2023-03-17T22:37:34.034Z,0.32
2023-03-17T22:40:05.003Z,0.30
2023-03-17T22:42:32.649Z,0.40
2023-03-17T22:45:00.178Z,0.30
2023-03-17T22:47:28.024Z,0.32
2023-03-17T22:49:55.541Z,0.40
2023-03-17T22:52:23.375Z,0.40
2023-03-17T22:54:50.788Z,0.40
2023-03-17T22:57:19.544Z,0.30
2023-03-17T22:59:47.085Z,0.30
2023-03-17T23:02:16.767Z,0.40
2023-03-17T23:04:45.520Z,0.30
2023-03-17T23:07:12.984Z,0.47
2023-03-17T23:09:41.372Z,0.30
2023-03-17T23:12:09.156Z,0.30
2023-03-17T23:14:38.176Z,0.30
2023-03-17T23:17:06.120Z,0.32
2023-03-17T23:19:34.059Z,0.30
2023-03-17T23:22:01.510Z,0.30
2023-03-17T23:24:28.993Z,0.40
2023-03-17T23:26:57.018Z,0.30
2023-03-17T23:29:24.655Z,0.40
2023-03-17T23:31:53.436Z,0.30
2023-03-17T23:34:20.887Z,0.40
2023-03-17T23:36:48.348Z,0.30
2023-03-17T23:39:16.322Z,0.35
2023-03-17T23:41:44.871Z,0.40
2023-03-17T23:44:12.550Z,0.40
2023-03-17T23:46:39.978Z,0.30
2023-03-17T23:49:08.754Z,0.32
2023-03-17T23:51:37.198Z,0.30
2023-03-17T23:54:05.703Z,0.30
2023-03-17T23:56:33.383Z,0.40
2023-03-17T23:59:01.565Z,0.40
